Main page
METAR-TAF:

METAR-TAF

Airports :

RAF Holbeach

Holbeach, England

latitude: 52-52N, longitude: 000-09E, elevation: 3 m

Current weather observation

The report was made 42 minutes ago, at 10:20 UTC
Wind 5 kt from the West
Temperature 20°C
Humidity 64%
Pressure 1020 hPa
Visibility 10 km or more
Few clouds at a height of 2800 ft

METAR: EGYH 171020Z 28005KT 9999 FEW028 20/13 Q1020 RMK BLU

Time: 12:02 (11:02 UTC)


TAF: missing

Weather observations and forecasts of more than 4000 airports (METAR and TAF reports).

The available stations are represented by yellow and red dots on the map.

Hover mouse over dot to see the name of the station.

Then click to see weather observations and forecasts.

To change the map : click on the green buttons with a black cross to zoom in, on the green button with a dash to zoom out, or on the green arrows for adjacent maps.


METAR-TAF: